sensor_id;sensor_type;location;lat;lon;timestamp;temperature;humidity
49549;DHT22;35450;44.518;7.466;2023-08-30T00:02:33;19.90;84.30
49549;DHT22;35450;44.518;7.466;2023-08-30T00:05:39;19.90;83.70
49549;DHT22;35450;44.518;7.466;2023-08-30T00:08:44;19.90;82.50
49549;DHT22;35450;44.518;7.466;2023-08-30T00:11:48;19.90;84.30
49549;DHT22;35450;44.518;7.466;2023-08-30T00:14:52;19.90;83.40
49549;DHT22;35450;44.518;7.466;2023-08-30T00:17:56;19.90;82.40
49549;DHT22;35450;44.518;7.466;2023-08-30T00:21:00;19.90;81.20
49549;DHT22;35450;44.518;7.466;2023-08-30T00:24:04;20.00;82.00
49549;DHT22;35450;44.518;7.466;2023-08-30T00:27:09;19.90;81.40
49549;DHT22;35450;44.518;7.466;2023-08-30T00:30:13;20.00;81.00
49549;DHT22;35450;44.518;7.466;2023-08-30T00:33:17;20.00;81.90
49549;DHT22;35450;44.518;7.466;2023-08-30T00:36:21;20.00;82.30
49549;DHT22;35450;44.518;7.466;2023-08-30T00:39:25;19.90;84.90
49549;DHT22;35450;44.518;7.466;2023-08-30T00:42:29;19.90;83.70
49549;DHT22;35450;44.518;7.466;2023-08-30T00:45:34;19.90;82.40
49549;DHT22;35450;44.518;7.466;2023-08-30T00:48:38;19.90;82.70
49549;DHT22;35450;44.518;7.466;2023-08-30T00:51:43;19.80;81.40
49549;DHT22;35450;44.518;7.466;2023-08-30T00:54:47;19.90;81.10
49549;DHT22;35450;44.518;7.466;2023-08-30T00:57:51;19.90;79.80
49549;DHT22;35450;44.518;7.466;2023-08-30T01:00:55;20.00;80.00
49549;DHT22;35450;44.518;7.466;2023-08-30T01:03:59;19.90;77.70
49549;DHT22;35450;44.518;7.466;2023-08-30T01:07:04;19.90;77.10
49549;DHT22;35450;44.518;7.466;2023-08-30T01:10:08;19.90;75.70
49549;DHT22;35450;44.518;7.466;2023-08-30T01:13:18;19.90;75.40
49549;DHT22;35450;44.518;7.466;2023-08-30T01:16:24;19.80;75.10
49549;DHT22;35450;44.518;7.466;2023-08-30T01:20:05;19.80;75.60
49549;DHT22;35450;44.518;7.466;2023-08-30T01:26:42;19.80;75.20
49549;DHT22;35450;44.518;7.466;2023-08-30T01:29:49;19.70;75.40
49549;DHT22;35450;44.518;7.466;2023-08-30T01:32:54;19.70;74.60
49549;DHT22;35450;44.518;7.466;2023-08-30T01:36:01;19.70;74.60
49549;DHT22;35450;44.518;7.466;2023-08-30T01:39:07;19.80;72.70
49549;DHT22;35450;44.518;7.466;2023-08-30T01:42:11;19.70;73.20
49549;DHT22;35450;44.518;7.466;2023-08-30T01:45:20;19.70;73.50
49549;DHT22;35450;44.518;7.466;2023-08-30T01:48:27;19.60;73.10
49549;DHT22;35450;44.518;7.466;2023-08-30T01:51:32;19.70;73.70
49549;DHT22;35450;44.518;7.466;2023-08-30T01:54:41;19.80;74.30
49549;DHT22;35450;44.518;7.466;2023-08-30T01:57:47;19.80;75.40
49549;DHT22;35450;44.518;7.466;2023-08-30T02:00:50;19.80;76.00
49549;DHT22;35450;44.518;7.466;2023-08-30T02:03:54;19.80;76.40
49549;DHT22;35450;44.518;7.466;2023-08-30T02:07:04;19.70;76.60
49549;DHT22;35450;44.518;7.466;2023-08-30T02:10:11;19.70;77.00
49549;DHT22;35450;44.518;7.466;2023-08-30T02:13:16;19.60;77.00
49549;DHT22;35450;44.518;7.466;2023-08-30T02:16:22;19.60;78.20
49549;DHT22;35450;44.518;7.466;2023-08-30T02:19:26;19.50;79.20
49549;DHT22;35450;44.518;7.466;2023-08-30T02:22:31;19.50;77.60
49549;DHT22;35450;44.518;7.466;2023-08-30T02:25:35;19.30;78.20
49549;DHT22;35450;44.518;7.466;2023-08-30T02:28:39;19.30;79.10
49549;DHT22;35450;44.518;7.466;2023-08-30T02:31:44;19.40;79.00
49549;DHT22;35450;44.518;7.466;2023-08-30T02:34:50;19.40;78.70
49549;DHT22;35450;44.518;7.466;2023-08-30T02:37:54;19.40;78.30
49549;DHT22;35450;44.518;7.466;2023-08-30T02:40:59;19.30;78.10
49549;DHT22;35450;44.518;7.466;2023-08-30T02:44:03;19.20;77.00
49549;DHT22;35450;44.518;7.466;2023-08-30T02:47:07;19.10;77.50
49549;DHT22;35450;44.518;7.466;2023-08-30T02:50:11;18.90;78.30
49549;DHT22;35450;44.518;7.466;2023-08-30T02:53:15;18.90;78.40
49549;DHT22;35450;44.518;7.466;2023-08-30T02:56:20;18.90;77.50
49549;DHT22;35450;44.518;7.466;2023-08-30T02:59:25;18.80;77.50
49549;DHT22;35450;44.518;7.466;2023-08-30T03:02:29;18.80;78.00
49549;DHT22;35450;44.518;7.466;2023-08-30T03:05:33;18.70;79.90
49549;DHT22;35450;44.518;7.466;2023-08-30T03:08:38;18.60;79.80
49549;DHT22;35450;44.518;7.466;2023-08-30T03:11:42;18.70;79.40
49549;DHT22;35450;44.518;7.466;2023-08-30T03:14:47;18.70;78.10
49549;DHT22;35450;44.518;7.466;2023-08-30T03:17:51;18.60;78.10
49549;DHT22;35450;44.518;7.466;2023-08-30T03:21:01;18.60;79.60
49549;DHT22;35450;44.518;7.466;2023-08-30T03:24:05;18.60;79.80
49549;DHT22;35450;44.518;7.466;2023-08-30T03:27:10;18.60;80.10
49549;DHT22;35450;44.518;7.466;2023-08-30T03:30:15;18.50;78.40
49549;DHT22;35450;44.518;7.466;2023-08-30T03:33:19;18.40;79.10
49549;DHT22;35450;44.518;7.466;2023-08-30T03:36:23;18.40;79.40
49549;DHT22;35450;44.518;7.466;2023-08-30T03:39:27;18.40;79.40
49549;DHT22;35450;44.518;7.466;2023-08-30T03:42:31;18.40;79.70
49549;DHT22;35450;44.518;7.466;2023-08-30T03:45:36;18.30;79.80
49549;DHT22;35450;44.518;7.466;2023-08-30T03:48:40;18.30;79.90
49549;DHT22;35450;44.518;7.466;2023-08-30T03:51:44;18.20;79.20
49549;DHT22;35450;44.518;7.466;2023-08-30T03:54:48;18.30;78.70
49549;DHT22;35450;44.518;7.466;2023-08-30T03:57:52;18.30;79.10
49549;DHT22;35450;44.518;7.466;2023-08-30T04:00:57;18.30;79.10
49549;DHT22;35450;44.518;7.466;2023-08-30T04:04:01;18.20;79.40
49549;DHT22;35450;44.518;7.466;2023-08-30T04:07:05;18.10;79.70
49549;DHT22;35450;44.518;7.466;2023-08-30T04:10:09;18.10;79.80
49549;DHT22;35450;44.518;7.466;2023-08-30T04:13:13;18.00;80.00
49549;DHT22;35450;44.518;7.466;2023-08-30T04:16:18;17.90;80.00
49549;DHT22;35450;44.518;7.466;2023-08-30T04:19:23;17.80;80.20
49549;DHT22;35450;44.518;7.466;2023-08-30T04:22:27;17.70;80.80
49549;DHT22;35450;44.518;7.466;2023-08-30T04:25:31;17.80;82.30
49549;DHT22;35450;44.518;7.466;2023-08-30T04:28:35;17.70;82.00
49549;DHT22;35450;44.518;7.466;2023-08-30T04:31:39;17.60;81.60
49549;DHT22;35450;44.518;7.466;2023-08-30T04:34:43;17.60;81.30
49549;DHT22;35450;44.518;7.466;2023-08-30T04:37:47;17.60;81.10
49549;DHT22;35450;44.518;7.466;2023-08-30T04:40:58;17.60;81.20
49549;DHT22;35450;44.518;7.466;2023-08-30T04:44:09;17.60;80.80
49549;DHT22;35450;44.518;7.466;2023-08-30T04:47:12;17.60;80.80
49549;DHT22;35450;44.518;7.466;2023-08-30T04:50:16;17.60;80.40
49549;DHT22;35450;44.518;7.466;2023-08-30T04:53:20;17.60;79.80
49549;DHT22;35450;44.518;7.466;2023-08-30T04:56:25;17.60;80.30
49549;DHT22;35450;44.518;7.466;2023-08-30T04:59:29;17.60;79.60
49549;DHT22;35450;44.518;7.466;2023-08-30T05:02:34;17.60;79.70
49549;DHT22;35450;44.518;7.466;2023-08-30T05:05:45;17.60;79.40
49549;DHT22;35450;44.518;7.466;2023-08-30T05:08:49;17.70;80.00
49549;DHT22;35450;44.518;7.466;2023-08-30T05:11:53;17.70;80.00
49549;DHT22;35450;44.518;7.466;2023-08-30T05:14:57;17.70;80.20
49549;DHT22;35450;44.518;7.466;2023-08-30T05:18:03;17.60;81.00
49549;DHT22;35450;44.518;7.466;2023-08-30T05:21:07;17.70;80.60
49549;DHT22;35450;44.518;7.466;2023-08-30T05:24:11;17.70;80.80
49549;DHT22;35450;44.518;7.466;2023-08-30T05:27:15;17.80;80.50
49549;DHT22;35450;44.518;7.466;2023-08-30T05:30:21;17.80;80.70
49549;DHT22;35450;44.518;7.466;2023-08-30T05:33:29;17.80;81.90
49549;DHT22;35450;44.518;7.466;2023-08-30T05:36:54;17.80;82.60
49549;DHT22;35450;44.518;7.466;2023-08-30T05:40:29;17.80;82.70
49549;DHT22;35450;44.518;7.466;2023-08-30T05:43:33;17.80;83.90
49549;DHT22;35450;44.518;7.466;2023-08-30T05:46:37;17.70;83.00
49549;DHT22;35450;44.518;7.466;2023-08-30T05:49:41;17.70;83.40
49549;DHT22;35450;44.518;7.466;2023-08-30T05:52:45;17.80;84.40
49549;DHT22;35450;44.518;7.466;2023-08-30T05:55:49;17.80;83.70
49549;DHT22;35450;44.518;7.466;2023-08-30T05:58:53;17.80;84.50
49549;DHT22;35450;44.518;7.466;2023-08-30T06:01:57;17.80;84.70
49549;DHT22;35450;44.518;7.466;2023-08-30T06:05:01;17.90;84.40
49549;DHT22;35450;44.518;7.466;2023-08-30T06:08:07;17.90;84.20
49549;DHT22;35450;44.518;7.466;2023-08-30T06:11:12;18.00;84.30
49549;DHT22;35450;44.518;7.466;2023-08-30T06:14:16;18.00;84.10
49549;DHT22;35450;44.518;7.466;2023-08-30T06:17:20;18.10;84.00
49549;DHT22;35450;44.518;7.466;2023-08-30T06:20:24;18.10;83.90
49549;DHT22;35450;44.518;7.466;2023-08-30T06:23:28;18.20;83.80
49549;DHT22;35450;44.518;7.466;2023-08-30T06:26:37;18.30;82.30
49549;DHT22;35450;44.518;7.466;2023-08-30T06:29:41;18.30;82.50
49549;DHT22;35450;44.518;7.466;2023-08-30T06:32:45;18.40;82.80
49549;DHT22;35450;44.518;7.466;2023-08-30T06:35:50;18.50;83.30
49549;DHT22;35450;44.518;7.466;2023-08-30T06:38:57;18.60;86.00
49549;DHT22;35450;44.518;7.466;2023-08-30T06:42:04;18.70;88.50
49549;DHT22;35450;44.518;7.466;2023-08-30T06:45:08;18.70;89.80
49549;DHT22;35450;44.518;7.466;2023-08-30T06:48:13;18.80;89.90
49549;DHT22;35450;44.518;7.466;2023-08-30T06:51:17;18.80;89.10
49549;DHT22;35450;44.518;7.466;2023-08-30T06:54:20;18.90;87.90
49549;DHT22;35450;44.518;7.466;2023-08-30T06:57:24;18.90;86.30
49549;DHT22;35450;44.518;7.466;2023-08-30T07:00:28;19.00;84.30
49549;DHT22;35450;44.518;7.466;2023-08-30T07:03:32;19.10;82.00
49549;DHT22;35450;44.518;7.466;2023-08-30T07:06:37;19.20;80.30
49549;DHT22;35450;44.518;7.466;2023-08-30T07:09:40;19.30;80.70
49549;DHT22;35450;44.518;7.466;2023-08-30T07:12:45;19.40;80.30
49549;DHT22;35450;44.518;7.466;2023-08-30T07:15:51;19.50;79.50
49549;DHT22;35450;44.518;7.466;2023-08-30T07:18:55;19.50;79.30
49549;DHT22;35450;44.518;7.466;2023-08-30T07:21:59;19.50;77.60
49549;DHT22;35450;44.518;7.466;2023-08-30T07:25:04;19.60;77.50
49549;DHT22;35450;44.518;7.466;2023-08-30T07:28:08;19.60;77.00
49549;DHT22;35450;44.518;7.466;2023-08-30T07:31:12;19.70;75.70
49549;DHT22;35450;44.518;7.466;2023-08-30T07:34:19;19.70;75.80
49549;DHT22;35450;44.518;7.466;2023-08-30T07:37:23;19.80;75.60
49549;DHT22;35450;44.518;7.466;2023-08-30T07:40:27;19.80;76.40
49549;DHT22;35450;44.518;7.466;2023-08-30T07:43:32;19.90;76.10
49549;DHT22;35450;44.518;7.466;2023-08-30T07:46:37;19.90;76.00
49549;DHT22;35450;44.518;7.466;2023-08-30T07:49:41;20.00;75.70
49549;DHT22;35450;44.518;7.466;2023-08-30T07:52:46;20.00;75.40
49549;DHT22;35450;44.518;7.466;2023-08-30T07:55:50;20.00;76.30
49549;DHT22;35450;44.518;7.466;2023-08-30T07:58:54;20.00;76.60
49549;DHT22;35450;44.518;7.466;2023-08-30T08:01:59;20.10;76.90
49549;DHT22;35450;44.518;7.466;2023-08-30T08:05:03;20.10;76.70
49549;DHT22;35450;44.518;7.466;2023-08-30T08:08:07;20.00;75.70
49549;DHT22;35450;44.518;7.466;2023-08-30T08:11:11;20.00;75.20
49549;DHT22;35450;44.518;7.466;2023-08-30T08:14:15;20.10;74.80
49549;DHT22;35450;44.518;7.466;2023-08-30T08:17:19;20.10;74.20
49549;DHT22;35450;44.518;7.466;2023-08-30T08:20:23;20.20;72.80
49549;DHT22;35450;44.518;7.466;2023-08-30T08:23:28;20.20;72.10
49549;DHT22;35450;44.518;7.466;2023-08-30T08:26:32;20.30;73.00
49549;DHT22;35450;44.518;7.466;2023-08-30T08:29:36;20.40;73.30
49549;DHT22;35450;44.518;7.466;2023-08-30T08:32:40;20.50;72.80
49549;DHT22;35450;44.518;7.466;2023-08-30T08:35:44;20.50;73.40
49549;DHT22;35450;44.518;7.466;2023-08-30T08:38:49;20.50;73.10
49549;DHT22;35450;44.518;7.466;2023-08-30T08:41:54;20.50;74.30
49549;DHT22;35450;44.518;7.466;2023-08-30T08:44:59;20.60;73.90
49549;DHT22;35450;44.518;7.466;2023-08-30T08:48:04;20.70;74.20
49549;DHT22;35450;44.518;7.466;2023-08-30T08:51:09;20.60;72.00
49549;DHT22;35450;44.518;7.466;2023-08-30T08:54:13;20.70;73.50
49549;DHT22;35450;44.518;7.466;2023-08-30T08:57:19;20.60;73.70
49549;DHT22;35450;44.518;7.466;2023-08-30T09:00:24;20.60;74.00
49549;DHT22;35450;44.518;7.466;2023-08-30T09:03:28;20.60;74.80
49549;DHT22;35450;44.518;7.466;2023-08-30T09:06:33;20.50;74.50
49549;DHT22;35450;44.518;7.466;2023-08-30T09:09:37;20.60;74.30
49549;DHT22;35450;44.518;7.466;2023-08-30T09:12:42;20.60;73.20
49549;DHT22;35450;44.518;7.466;2023-08-30T09:15:46;20.70;72.00
49549;DHT22;35450;44.518;7.466;2023-08-30T09:19:04;20.70;71.80
49549;DHT22;35450;44.518;7.466;2023-08-30T09:22:08;20.80;72.70
49549;DHT22;35450;44.518;7.466;2023-08-30T09:25:23;20.90;72.20
49549;DHT22;35450;44.518;7.466;2023-08-30T09:28:30;20.90;72.60
49549;DHT22;35450;44.518;7.466;2023-08-30T09:31:39;20.90;72.80
49549;DHT22;35450;44.518;7.466;2023-08-30T09:34:45;20.90;71.40
49549;DHT22;35450;44.518;7.466;2023-08-30T09:37:51;21.00;68.20
49549;DHT22;35450;44.518;7.466;2023-08-30T09:41:05;21.00;68.60
49549;DHT22;35450;44.518;7.466;2023-08-30T09:44:14;21.10;68.00
49549;DHT22;35450;44.518;7.466;2023-08-30T09:47:18;21.10;67.60
49549;DHT22;35450;44.518;7.466;2023-08-30T09:50:22;21.10;67.40
49549;DHT22;35450;44.518;7.466;2023-08-30T09:53:29;21.10;67.10
49549;DHT22;35450;44.518;7.466;2023-08-30T09:56:35;21.20;68.00
49549;DHT22;35450;44.518;7.466;2023-08-30T09:59:40;21.20;66.80
49549;DHT22;35450;44.518;7.466;2023-08-30T10:02:44;21.20;67.10
49549;DHT22;35450;44.518;7.466;2023-08-30T10:05:50;21.30;66.00
49549;DHT22;35450;44.518;7.466;2023-08-30T10:08:55;21.30;66.90
49549;DHT22;35450;44.518;7.466;2023-08-30T10:12:01;21.30;67.40
49549;DHT22;35450;44.518;7.466;2023-08-30T10:15:07;21.30;67.50
49549;DHT22;35450;44.518;7.466;2023-08-30T10:18:14;21.40;67.50
49549;DHT22;35450;44.518;7.466;2023-08-30T10:21:20;21.40;67.90
49549;DHT22;35450;44.518;7.466;2023-08-30T10:24:26;21.50;67.50
49549;DHT22;35450;44.518;7.466;2023-08-30T10:27:32;21.50;67.50
49549;DHT22;35450;44.518;7.466;2023-08-30T10:30:37;21.50;67.30
49549;DHT22;35450;44.518;7.466;2023-08-30T10:33:53;21.50;66.80
49549;DHT22;35450;44.518;7.466;2023-08-30T10:36:59;21.50;68.60
49549;DHT22;35450;44.518;7.466;2023-08-30T10:40:05;21.60;69.00
49549;DHT22;35450;44.518;7.466;2023-08-30T10:43:11;21.60;68.50
49549;DHT22;35450;44.518;7.466;2023-08-30T10:46:16;21.60;69.20
49549;DHT22;35450;44.518;7.466;2023-08-30T10:49:20;21.60;69.10
49549;DHT22;35450;44.518;7.466;2023-08-30T10:52:27;21.60;69.20
49549;DHT22;35450;44.518;7.466;2023-08-30T10:55:32;21.70;69.80
49549;DHT22;35450;44.518;7.466;2023-08-30T10:58:43;21.80;70.90
49549;DHT22;35450;44.518;7.466;2023-08-30T11:01:51;21.80;70.30
49549;DHT22;35450;44.518;7.466;2023-08-30T11:04:57;21.80;69.50
49549;DHT22;35450;44.518;7.466;2023-08-30T11:08:03;21.90;69.70
49549;DHT22;35450;44.518;7.466;2023-08-30T11:11:08;21.80;70.90
49549;DHT22;35450;44.518;7.466;2023-08-30T11:14:15;21.90;70.90
49549;DHT22;35450;44.518;7.466;2023-08-30T11:17:19;21.90;69.90
49549;DHT22;35450;44.518;7.466;2023-08-30T11:20:23;22.00;69.10
49549;DHT22;35450;44.518;7.466;2023-08-30T11:23:28;22.00;69.20
49549;DHT22;35450;44.518;7.466;2023-08-30T11:26:33;22.00;68.00
49549;DHT22;35450;44.518;7.466;2023-08-30T11:29:39;22.10;66.10
49549;DHT22;35450;44.518;7.466;2023-08-30T11:32:43;22.10;65.30
49549;DHT22;35450;44.518;7.466;2023-08-30T11:35:49;22.20;65.80
49549;DHT22;35450;44.518;7.466;2023-08-30T11:38:55;22.10;65.20
49549;DHT22;35450;44.518;7.466;2023-08-30T11:42:00;22.20;64.80
49549;DHT22;35450;44.518;7.466;2023-08-30T11:45:07;22.20;64.80
49549;DHT22;35450;44.518;7.466;2023-08-30T11:48:11;22.20;65.20
49549;DHT22;35450;44.518;7.466;2023-08-30T11:51:17;22.30;65.60
49549;DHT22;35450;44.518;7.466;2023-08-30T11:54:23;22.30;66.30
49549;DHT22;35450;44.518;7.466;2023-08-30T11:57:28;22.30;66.20
49549;DHT22;35450;44.518;7.466;2023-08-30T12:00:33;22.30;65.70
49549;DHT22;35450;44.518;7.466;2023-08-30T12:03:37;22.30;66.40
49549;DHT22;35450;44.518;7.466;2023-08-30T12:06:42;22.40;66.80
49549;DHT22;35450;44.518;7.466;2023-08-30T12:09:46;22.40;67.40
49549;DHT22;35450;44.518;7.466;2023-08-30T12:12:51;22.40;68.20
49549;DHT22;35450;44.518;7.466;2023-08-30T12:15:56;22.50;67.50
49549;DHT22;35450;44.518;7.466;2023-08-30T12:19:10;22.50;66.50
49549;DHT22;35450;44.518;7.466;2023-08-30T12:22:16;22.60;66.10
49549;DHT22;35450;44.518;7.466;2023-08-30T12:25:21;22.60;66.40
49549;DHT22;35450;44.518;7.466;2023-08-30T12:28:28;22.60;66.70
49549;DHT22;35450;44.518;7.466;2023-08-30T12:31:33;22.60;66.10
49549;DHT22;35450;44.518;7.466;2023-08-30T12:34:37;22.60;65.80
49549;DHT22;35450;44.518;7.466;2023-08-30T12:37:42;22.60;67.00
49549;DHT22;35450;44.518;7.466;2023-08-30T12:40:47;22.70;67.10
49549;DHT22;35450;44.518;7.466;2023-08-30T12:43:52;22.70;67.50
49549;DHT22;35450;44.518;7.466;2023-08-30T12:46:56;22.80;66.80
49549;DHT22;35450;44.518;7.466;2023-08-30T12:50:00;22.80;66.40
49549;DHT22;35450;44.518;7.466;2023-08-30T12:53:05;22.80;66.30
49549;DHT22;35450;44.518;7.466;2023-08-30T12:56:09;22.80;66.20
49549;DHT22;35450;44.518;7.466;2023-08-30T12:59:13;22.80;65.60
49549;DHT22;35450;44.518;7.466;2023-08-30T13:02:18;22.80;66.70
49549;DHT22;35450;44.518;7.466;2023-08-30T13:05:22;22.90;66.70
49549;DHT22;35450;44.518;7.466;2023-08-30T13:08:26;22.90;67.00
49549;DHT22;35450;44.518;7.466;2023-08-30T13:11:30;22.90;67.90
49549;DHT22;35450;44.518;7.466;2023-08-30T13:14:36;23.00;67.40
49549;DHT22;35450;44.518;7.466;2023-08-30T13:17:40;23.00;66.90
49549;DHT22;35450;44.518;7.466;2023-08-30T13:20:45;23.00;67.20
49549;DHT22;35450;44.518;7.466;2023-08-30T13:23:49;23.00;67.80
49549;DHT22;35450;44.518;7.466;2023-08-30T13:26:53;23.00;67.40
49549;DHT22;35450;44.518;7.466;2023-08-30T13:29:57;23.10;67.80
49549;DHT22;35450;44.518;7.466;2023-08-30T13:33:01;23.00;67.20
49549;DHT22;35450;44.518;7.466;2023-08-30T13:36:05;23.00;66.80
49549;DHT22;35450;44.518;7.466;2023-08-30T13:39:09;23.00;67.40
49549;DHT22;35450;44.518;7.466;2023-08-30T13:42:13;22.90;67.20
49549;DHT22;35450;44.518;7.466;2023-08-30T13:45:17;23.00;67.90
49549;DHT22;35450;44.518;7.466;2023-08-30T13:48:21;23.00;67.30
49549;DHT22;35450;44.518;7.466;2023-08-30T13:51:26;23.10;67.10
49549;DHT22;35450;44.518;7.466;2023-08-30T13:54:31;23.20;67.90
49549;DHT22;35450;44.518;7.466;2023-08-30T13:57:35;23.10;67.50
49549;DHT22;35450;44.518;7.466;2023-08-30T14:00:40;23.10;68.60
49549;DHT22;35450;44.518;7.466;2023-08-30T14:03:44;23.10;68.60
49549;DHT22;35450;44.518;7.466;2023-08-30T14:06:48;23.20;68.00
49549;DHT22;35450;44.518;7.466;2023-08-30T14:09:53;23.30;67.90
49549;DHT22;35450;44.518;7.466;2023-08-30T14:12:57;23.30;67.60
49549;DHT22;35450;44.518;7.466;2023-08-30T14:16:04;23.40;67.00
49549;DHT22;35450;44.518;7.466;2023-08-30T14:19:08;23.40;67.60
49549;DHT22;35450;44.518;7.466;2023-08-30T14:22:12;23.30;66.90
49549;DHT22;35450;44.518;7.466;2023-08-30T14:25:16;23.30;68.30
49549;DHT22;35450;44.518;7.466;2023-08-30T14:28:20;23.30;67.90
49549;DHT22;35450;44.518;7.466;2023-08-30T14:31:25;23.30;68.40
49549;DHT22;35450;44.518;7.466;2023-08-30T14:34:30;23.30;67.40
49549;DHT22;35450;44.518;7.466;2023-08-30T14:37:35;23.30;68.90
49549;DHT22;35450;44.518;7.466;2023-08-30T14:40:40;23.30;69.70
49549;DHT22;35450;44.518;7.466;2023-08-30T14:43:44;23.30;68.50
49549;DHT22;35450;44.518;7.466;2023-08-30T14:46:48;23.30;68.30
49549;DHT22;35450;44.518;7.466;2023-08-30T14:49:55;23.40;68.10
49549;DHT22;35450;44.518;7.466;2023-08-30T14:53:00;23.50;68.10
49549;DHT22;35450;44.518;7.466;2023-08-30T14:56:05;23.60;68.00
49549;DHT22;35450;44.518;7.466;2023-08-30T14:59:12;23.70;68.10
49549;DHT22;35450;44.518;7.466;2023-08-30T15:02:16;23.80;67.60
49549;DHT22;35450;44.518;7.466;2023-08-30T15:05:20;23.90;68.10
49549;DHT22;35450;44.518;7.466;2023-08-30T15:08:24;24.00;67.70
49549;DHT22;35450;44.518;7.466;2023-08-30T15:11:32;24.10;67.30
49549;DHT22;35450;44.518;7.466;2023-08-30T15:14:36;24.10;67.40
49549;DHT22;35450;44.518;7.466;2023-08-30T15:17:43;24.40;67.40
49549;DHT22;35450;44.518;7.466;2023-08-30T15:20:47;24.50;67.30
49549;DHT22;35450;44.518;7.466;2023-08-30T15:23:53;24.70;67.00
49549;DHT22;35450;44.518;7.466;2023-08-30T15:26:57;24.90;66.80
49549;DHT22;35450;44.518;7.466;2023-08-30T15:30:02;25.00;66.70
49549;DHT22;35450;44.518;7.466;2023-08-30T15:33:09;25.30;66.60
49549;DHT22;35450;44.518;7.466;2023-08-30T15:36:13;25.40;66.10
49549;DHT22;35450;44.518;7.466;2023-08-30T15:39:17;25.70;66.50
49549;DHT22;35450;44.518;7.466;2023-08-30T15:42:21;25.80;65.60
49549;DHT22;35450;44.518;7.466;2023-08-30T15:45:26;26.10;65.30
49549;DHT22;35450;44.518;7.466;2023-08-30T15:48:30;26.40;65.00
49549;DHT22;35450;44.518;7.466;2023-08-30T15:51:34;26.50;64.10
49549;DHT22;35450;44.518;7.466;2023-08-30T15:54:38;26.50;64.70
49549;DHT22;35450;44.518;7.466;2023-08-30T15:57:42;27.10;62.80
49549;DHT22;35450;44.518;7.466;2023-08-30T16:00:47;27.50;63.50
49549;DHT22;35450;44.518;7.466;2023-08-30T16:03:52;27.10;62.90
49549;DHT22;35450;44.518;7.466;2023-08-30T16:06:56;26.70;64.70
49549;DHT22;35450;44.518;7.466;2023-08-30T16:10:00;26.00;66.10
49549;DHT22;35450;44.518;7.466;2023-08-30T16:13:04;25.60;66.00
49549;DHT22;35450;44.518;7.466;2023-08-30T16:16:09;25.30;69.20
49549;DHT22;35450;44.518;7.466;2023-08-30T16:19:13;25.00;70.30
49549;DHT22;35450;44.518;7.466;2023-08-30T16:22:17;24.70;71.90
49549;DHT22;35450;44.518;7.466;2023-08-30T16:25:23;24.50;69.90
49549;DHT22;35450;44.518;7.466;2023-08-30T16:28:29;24.40;71.50
49549;DHT22;35450;44.518;7.466;2023-08-30T16:31:33;24.20;70.30
49549;DHT22;35450;44.518;7.466;2023-08-30T16:34:38;24.10;70.40
49549;DHT22;35450;44.518;7.466;2023-08-30T16:37:43;24.10;71.60
49549;DHT22;35450;44.518;7.466;2023-08-30T16:40:47;24.20;71.30
49549;DHT22;35450;44.518;7.466;2023-08-30T16:43:51;24.30;72.30
49549;DHT22;35450;44.518;7.466;2023-08-30T16:46:55;24.50;71.00
49549;DHT22;35450;44.518;7.466;2023-08-30T16:49:59;24.60;71.00
49549;DHT22;35450;44.518;7.466;2023-08-30T16:53:04;24.70;71.40
49549;DHT22;35450;44.518;7.466;2023-08-30T16:56:10;24.50;73.60
49549;DHT22;35450;44.518;7.466;2023-08-30T16:59:14;24.40;76.40
49549;DHT22;35450;44.518;7.466;2023-08-30T17:02:18;24.30;75.60
49549;DHT22;35450;44.518;7.466;2023-08-30T17:05:22;24.10;77.50
49549;DHT22;35450;44.518;7.466;2023-08-30T17:08:26;24.20;79.10
49549;DHT22;35450;44.518;7.466;2023-08-30T17:11:32;24.20;78.50
49549;DHT22;35450;44.518;7.466;2023-08-30T17:14:39;24.20;78.00
49549;DHT22;35450;44.518;7.466;2023-08-30T17:17:43;23.90;79.60
49549;DHT22;35450;44.518;7.466;2023-08-30T17:20:47;23.90;79.70
49549;DHT22;35450;44.518;7.466;2023-08-30T17:23:51;23.80;79.30
49549;DHT22;35450;44.518;7.466;2023-08-30T17:26:55;23.70;78.50
49549;DHT22;35450;44.518;7.466;2023-08-30T17:30:02;23.60;78.20
49549;DHT22;35450;44.518;7.466;2023-08-30T17:33:06;23.50;77.60
49549;DHT22;35450;44.518;7.466;2023-08-30T17:36:10;23.30;78.30
49549;DHT22;35450;44.518;7.466;2023-08-30T17:39:14;23.10;79.30
